Time;durP1;ratioP1;P1;durP2;ratioP2;P2;SDS_P1;SDS_P2;PMS_P1;PMS_P2;Temp;Humidity;BMP_temperature;BMP_pressure;BME280_temperature;BME280_humidity;BME280_pressure;Samples;Min_cycle;Max_cycle;Signal;HPM_P1;HPM_P2
2021/10/05 00:01:25;;;;;;;5.90;5.40;;;;;;;15.29;77.25;95287.69;5032982;28;20198;-83
2021/10/05 00:03:52;;;;;;;6.63;6.03;;;;;;;15.11;78.44;95283.22;5033266;28;20576;-83
2021/10/05 00:06:20;;;;;;;6.30;5.70;;;;;;;15.14;78.64;95280.22;5033292;28;20206;-85
2021/10/05 00:08:46;;;;;;;6.07;5.55;;;;;;;15.13;78.56;95279.44;5033336;28;20237;-84
2021/10/05 00:11:13;;;;;;;6.47;5.90;;;;;;;15.13;78.62;95266.47;5034021;28;20202;-85
2021/10/05 00:13:40;;;;;;;6.43;5.93;;;;;;;15.12;78.61;95270.06;5034034;28;20203;-84
2021/10/05 00:16:08;;;;;;;6.47;5.88;;;;;;;15.15;78.47;95274.03;5033450;28;20217;-85
2021/10/05 00:18:36;;;;;;;6.80;6.20;;;;;;;15.08;78.84;95268.88;5034102;28;20229;-85
2021/10/05 00:21:03;;;;;;;6.80;6.20;;;;;;;15.11;78.69;95270.28;5034576;28;20267;-85
2021/10/05 00:23:31;;;;;;;6.80;6.20;;;;;;;15.02;79.11;95274.91;5034025;28;20210;-85
2021/10/05 00:25:58;;;;;;;6.78;6.13;;;;;;;15.09;79.04;95262.69;5033646;28;20202;-85
2021/10/05 00:28:24;;;;;;;7.03;6.32;;;;;;;15.14;78.85;95255.09;5033401;28;20241;-83
2021/10/05 00:30:50;;;;;;;6.47;5.90;;;;;;;15.15;79.25;95250.69;5034032;28;20209;-85
2021/10/05 00:33:17;;;;;;;7.20;6.50;;;;;;;15.10;80.07;95247.94;5034160;28;20209;-85
2021/10/05 00:35:43;;;;;;;6.50;5.93;;;;;;;15.04;80.55;95254.75;5032759;28;20608;-83
2021/10/05 00:38:12;;;;;;;6.23;5.70;;;;;;;15.07;80.35;95243.16;5032824;28;20245;-85
2021/10/05 00:40:40;;;;;;;6.47;5.97;;;;;;;15.14;80.54;95244.72;5035175;28;20205;-84
2021/10/05 00:43:08;;;;;;;6.15;5.65;;;;;;;15.16;80.12;95262.66;5037826;28;20198;-85
2021/10/05 00:45:35;;;;;;;6.70;6.03;;;;;;;15.23;79.59;95254.78;5037258;28;20839;-85
2021/10/05 00:48:01;;;;;;;8.23;5.95;;;;;;;15.33;78.93;95236.97;5037469;28;20736;-85
2021/10/05 00:50:28;;;;;;;6.38;5.88;;;;;;;15.28;79.63;95235.00;5038025;28;20197;-86
2021/10/05 00:52:57;;;;;;;6.68;6.03;;;;;;;15.29;79.51;95230.63;5038021;28;20209;-83
2021/10/05 00:55:26;;;;;;;6.65;6.05;;;;;;;15.26;80.07;95218.06;5037691;28;20202;-85
2021/10/05 00:57:54;;;;;;;7.57;6.87;;;;;;;15.08;80.82;95227.41;5037506;28;20222;-85
2021/10/05 01:00:24;;;;;;;6.85;6.25;;;;;;;15.12;80.67;95220.78;5036836;28;20203;-85
2021/10/05 01:02:51;;;;;;;6.87;6.27;;;;;;;15.20;80.20;95214.56;5027030;28;20208;-85
2021/10/05 01:05:19;;;;;;;6.72;6.05;;;;;;;15.20;80.82;95206.78;5038305;28;20206;-83
2021/10/05 01:07:50;;;;;;;6.80;6.30;;;;;;;15.07;81.95;95207.66;5037148;28;20259;-85
2021/10/05 01:10:18;;;;;;;6.85;6.25;;;;;;;15.13;81.49;95214.59;5037634;28;20232;-84
2021/10/05 01:12:49;;;;;;;7.95;7.25;;;;;;;15.05;81.42;95207.06;5037237;28;20190;-84
2021/10/05 01:15:17;;;;;;;7.47;6.77;;;;;;;15.02;81.53;95198.94;5029150;28;20206;-84
2021/10/05 01:17:44;;;;;;;7.32;6.57;;;;;;;15.12;81.42;95205.22;5037062;28;20226;-83
2021/10/05 01:20:12;;;;;;;7.43;6.72;;;;;;;15.26;80.56;95211.06;5037135;28;20198;-84
2021/10/05 01:22:39;;;;;;;6.97;6.28;;;;;;;15.26;80.73;95208.47;5036848;28;20198;-84
2021/10/05 01:25:08;;;;;;;6.78;6.18;;;;;;;15.30;80.42;95204.47;5036475;28;20205;-81
2021/10/05 01:27:42;;;;;;;6.57;6.07;;;;;;;15.30;80.21;95206.25;5023637;28;20215;-84
2021/10/05 01:30:09;;;;;;;6.80;6.20;;;;;;;15.28;80.35;95200.50;5017155;28;20236;-83
2021/10/05 01:32:35;;;;;;;7.43;6.77;;;;;;;15.27;81.27;95198.91;5016847;28;20218;-83
2021/10/05 01:35:02;;;;;;;7.20;6.60;;;;;;;15.28;80.68;95197.91;5016773;28;20800;-83
2021/10/05 01:37:28;;;;;;;7.40;6.80;;;;;;;15.32;80.38;95196.47;5016485;28;20237;-84
2021/10/05 01:39:56;;;;;;;7.40;6.80;;;;;;;15.35;80.37;95190.84;5034227;28;20241;-84
2021/10/05 01:42:23;;;;;;;8.60;7.70;;;;;;;15.30;81.19;95181.13;5036431;28;20202;-84
2021/10/05 01:44:51;;;;;;;8.37;7.37;;;;;;;15.27;81.30;95172.97;5036824;28;20210;-84
2021/10/05 01:47:18;;;;;;;7.25;6.65;;;;;;;15.24;81.67;95161.22;5036779;28;20220;-84
2021/10/05 01:49:45;;;;;;;7.63;6.90;;;;;;;15.19;82.18;95164.47;5037036;28;20202;-84
2021/10/05 01:52:12;;;;;;;9.50;7.20;;;;;;;15.21;82.14;95154.66;5035470;28;20210;-84
2021/10/05 01:54:39;;;;;;;7.97;7.27;;;;;;;15.19;82.61;95142.94;5037452;28;20214;-81
2021/10/05 01:57:07;;;;;;;7.93;7.23;;;;;;;15.15;83.13;95137.38;5035779;28;20222;-83
2021/10/05 01:59:33;;;;;;;8.77;8.07;;;;;;;15.23;82.15;95143.28;5036188;28;20203;-84
2021/10/05 02:02:01;;;;;;;10.73;8.65;;;;;;;15.13;83.07;95133.41;5036900;28;20209;-84
2021/10/05 02:04:27;;;;;;;9.63;8.73;;;;;;;15.21;81.85;95123.53;5036464;28;20213;-84
2021/10/05 02:06:54;;;;;;;10.17;9.17;;;;;;;15.13;84.10;95110.09;5035597;28;20198;-84
2021/10/05 02:09:20;;;;;;;9.70;8.83;;;;;;;15.13;83.73;95104.91;5022707;28;20736;-84
2021/10/05 02:11:47;;;;;;;9.48;8.68;;;;;;;15.08;83.61;95094.38;5016983;28;20589;-84
2021/10/05 02:14:15;;;;;;;10.17;9.17;;;;;;;15.06;83.24;95099.78;5016780;28;20203;-84
2021/10/05 02:16:42;;;;;;;10.73;9.77;;;;;;;15.04;84.11;95099.19;5027840;28;20878;-84
2021/10/05 02:19:09;;;;;;;11.40;10.40;;;;;;;15.00;84.22;95111.03;5035490;28;20229;-83
2021/10/05 02:21:38;;;;;;;10.55;9.55;;;;;;;14.99;83.97;95108.66;5036380;28;20208;-83
2021/10/05 02:26:50;;;;;;;11.23;9.67;;;;;;;14.74;86.03;95104.28;5035787;28;20723;-84
2021/10/05 02:29:22;;;;;;;10.93;9.93;;;;;;;14.67;86.73;95095.78;5035729;28;20218;-84
2021/10/05 02:31:49;;;;;;;11.10;10.03;;;;;;;14.63;86.81;95107.56;5035710;28;20210;-84
2021/10/05 02:34:16;;;;;;;10.67;9.73;;;;;;;14.70;86.30;95105.72;5036302;28;20695;-84
2021/10/05 02:36:43;;;;;;;11.20;10.20;;;;;;;14.85;86.23;95100.19;5035813;28;20497;-83
2021/10/05 02:39:10;;;;;;;11.17;10.07;;;;;;;14.84;86.86;95094.22;5035135;28;20229;-84
2021/10/05 02:41:37;;;;;;;11.10;10.10;;;;;;;14.88;86.67;95086.81;5036363;28;20201;-84
2021/10/05 02:44:03;;;;;;;12.67;9.67;;;;;;;14.95;85.84;95073.78;5035420;28;20202;-84
2021/10/05 02:46:31;;;;;;;10.53;9.53;;;;;;;15.01;85.86;95063.31;5035205;28;20198;-84
2021/10/05 02:48:58;;;;;;;10.90;9.90;;;;;;;15.04;85.29;95064.69;5035723;28;20705;-84
2021/10/05 02:51:24;;;;;;;11.40;10.17;;;;;;;14.96;86.45;95070.97;5035967;28;20198;-84
2021/10/05 02:53:51;;;;;;;10.87;9.77;;;;;;;14.95;85.39;95082.34;5035179;28;20206;-83
2021/10/05 02:56:18;;;;;;;9.80;8.90;;;;;;;15.04;84.88;95069.88;5035774;28;20302;-84
2021/10/05 02:58:44;;;;;;;10.93;10.03;;;;;;;14.98;85.62;95053.41;5035248;28;20226;-84
2021/10/05 03:01:11;;;;;;;11.30;10.27;;;;;;;14.97;85.63;95035.47;5035363;28;20198;-83
2021/10/05 03:03:38;;;;;;;11.10;10.10;;;;;;;14.96;86.05;95026.13;5035744;28;20585;-84
2021/10/05 03:06:05;;;;;;;10.63;9.73;;;;;;;14.95;85.98;95025.31;5035278;28;20571;-84
2021/10/05 03:08:32;;;;;;;10.93;9.93;;;;;;;14.94;86.43;95039.28;5035142;28;20230;-84
2021/10/05 03:10:59;;;;;;;10.90;9.90;;;;;;;14.93;85.68;95047.28;5035543;28;20301;-84
2021/10/05 03:13:29;;;;;;;10.37;9.40;;;;;;;14.94;85.28;95041.09;5035463;28;20585;-83
2021/10/05 03:15:55;;;;;;;10.67;9.63;;;;;;;14.98;84.81;95037.84;5035019;28;20269;-84
2021/10/05 03:18:22;;;;;;;10.80;9.80;;;;;;;14.97;85.39;95033.69;5035141;28;20252;-84
2021/10/05 03:20:53;;;;;;;10.33;9.43;;;;;;;14.90;87.08;95020.00;5035631;28;20300;-83
2021/10/05 03:23:20;;;;;;;10.50;9.50;;;;;;;14.94;86.58;95020.34;5032918;28;20210;-82
2021/10/05 03:25:46;;;;;;;14.60;10.60;;;;;;;14.81;87.36;95019.50;5032816;28;20665;-82
2021/10/05 03:28:13;;;;;;;10.63;9.63;;;;;;;14.80;87.80;95028.28;5032945;28;20225;-84
2021/10/05 03:30:40;;;;;;;10.40;9.40;;;;;;;14.94;86.54;95034.09;5033718;28;20229;-82
2021/10/05 03:33:06;;;;;;;11.40;10.30;;;;;;;14.92;86.88;95017.97;5033176;28;20208;-84
2021/10/05 03:35:33;;;;;;;10.00;9.10;;;;;;;15.00;86.24;95015.09;5033511;28;20217;-83
2021/10/05 03:38:01;;;;;;;10.53;9.53;;;;;;;14.93;87.70;95011.00;5031887;28;20222;-83
2021/10/05 03:40:28;;;;;;;10.90;9.90;;;;;;;14.79;88.17;95010.34;5014153;28;20249;-84
2021/10/05 03:42:54;;;;;;;11.17;10.07;;;;;;;14.79;87.86;95018.91;5014246;28;20571;-83
2021/10/05 03:45:21;;;;;;;10.53;9.53;;;;;;;14.76;89.11;95021.16;5013643;28;20244;-84
2021/10/05 03:47:47;;;;;;;10.27;9.23;;;;;;;14.86;87.99;95024.81;5014284;28;20245;-82
2021/10/05 03:50:15;;;;;;;11.27;10.17;;;;;;;14.93;87.37;95022.16;5013590;28;20198;-82
2021/10/05 03:52:42;;;;;;;10.60;9.60;;;;;;;14.97;87.21;95019.91;5014093;28;20203;-82
2021/10/05 03:55:10;;;;;;;9.93;9.03;;;;;;;15.07;85.97;95035.75;5013949;28;20206;-83
2021/10/05 03:57:38;;;;;;;10.00;9.10;;;;;;;15.12;85.22;95028.09;5014340;28;20604;-83
2021/10/05 04:00:06;;;;;;;10.60;9.60;;;;;;;15.07;85.79;95028.75;5014392;28;20203;-82
2021/10/05 04:02:33;;;;;;;10.33;9.30;;;;;;;15.05;85.77;95023.00;5019027;28;20585;-83
2021/10/05 04:04:59;;;;;;;11.00;10.00;;;;;;;15.00;86.15;95011.72;5031794;28;20202;-82
2021/10/05 04:07:26;;;;;;;10.40;9.40;;;;;;;15.03;85.51;95027.59;5034142;28;20626;-82
2021/10/05 04:09:52;;;;;;;10.57;9.57;;;;;;;15.01;84.94;95034.03;5034000;28;20214;-83
2021/10/05 04:12:20;;;;;;;10.27;9.27;;;;;;;14.99;85.28;95016.09;5034180;28;20202;-82
2021/10/05 04:14:47;;;;;;;10.47;9.47;;;;;;;14.94;85.91;94999.63;5033784;28;20198;-83
2021/10/05 04:17:15;;;;;;;11.23;10.20;;;;;;;14.93;85.95;95003.22;5033870;28;20218;-83
2021/10/05 04:19:42;;;;;;;12.37;11.27;;;;;;;14.87;86.47;95004.88;5034092;28;20202;-83
2021/10/05 04:22:08;;;;;;;12.30;11.10;;;;;;;14.90;86.30;95019.19;5033509;28;20570;-82
2021/10/05 04:24:34;;;;;;;12.03;10.90;;;;;;;14.88;86.46;95023.78;5033804;28;20209;-83
2021/10/05 04:27:04;;;;;;;12.65;11.35;;;;;;;14.89;85.98;95026.19;5032498;28;20208;-83
2021/10/05 04:29:32;;;;;;;12.17;10.97;;;;;;;14.91;85.70;95031.16;5033413;28;20852;-83
2021/10/05 04:31:58;;;;;;;13.27;12.07;;;;;;;14.91;85.04;95021.56;5033128;28;20202;-84
2021/10/05 04:34:24;;;;;;;12.53;11.30;;;;;;;14.85;86.21;95023.22;5034181;28;20297;-84
2021/10/05 04:36:51;;;;;;;12.43;11.23;;;;;;;14.86;86.28;95021.41;5033478;28;20230;-83
2021/10/05 04:39:17;;;;;;;12.17;11.07;;;;;;;14.80;87.17;95025.69;5032588;28;20258;-83
2021/10/05 04:41:44;;;;;;;12.63;11.43;;;;;;;14.85;86.34;95020.63;5018034;28;20209;-82
2021/10/05 04:44:10;;;;;;;12.23;11.10;;;;;;;14.90;85.96;95017.41;5011942;28;20220;-83
2021/10/05 04:46:39;;;;;;;12.90;11.60;;;;;;;14.86;85.84;95016.25;5028642;28;20209;-83
2021/10/05 04:49:05;;;;;;;12.43;11.23;;;;;;;14.92;85.80;95012.00;5026350;28;20217;-83
2021/10/05 04:51:33;;;;;;;13.27;11.97;;;;;;;14.84;86.87;95010.47;5021574;28;20206;-84
2021/10/05 04:54:02;;;;;;;12.87;11.67;;;;;;;14.78;86.84;95017.34;5013493;28;20195;-84
2021/10/05 04:56:28;;;;;;;14.10;12.40;;;;;;;14.80;86.47;95019.72;5025049;28;20672;-84
2021/10/05 04:58:55;;;;;;;12.47;11.17;;;;;;;14.80;88.04;95019.72;5020898;28;20841;-83
2021/10/05 05:01:21;;;;;;;13.60;12.20;;;;;;;14.82;89.09;95025.44;5030309;28;20206;-85
2021/10/05 05:03:49;;;;;;;13.20;11.90;;;;;;;14.89;86.94;95010.63;5031761;28;20202;-83
2021/10/05 05:06:16;;;;;;;23.07;20.57;;;;;;;14.76;88.65;95016.75;5020922;28;20262;-84
2021/10/05 05:08:42;;;;;;;16.40;14.53;;;;;;;14.80;87.15;95030.09;5021191;28;20685;-84
2021/10/05 05:11:09;;;;;;;13.70;12.30;;;;;;;14.85;86.96;95045.75;5016415;28;20860;-85
2021/10/05 05:13:35;;;;;;;13.50;12.10;;;;;;;14.85;86.89;95054.31;5031362;28;20712;-84
2021/10/05 05:16:05;;;;;;;13.00;11.60;;;;;;;14.90;86.61;95055.47;5031282;28;20198;-85
2021/10/05 05:18:31;;;;;;;12.57;11.27;;;;;;;14.83;86.85;95058.13;5032256;28;20238;-85
2021/10/05 05:20:59;;;;;;;13.43;11.30;;;;;;;14.80;86.58;95050.81;5032507;28;20203;-85
2021/10/05 05:23:25;;;;;;;12.07;10.87;;;;;;;14.75;87.64;95045.47;5032380;28;20377;-84
2021/10/05 05:25:52;;;;;;;13.27;11.53;;;;;;;14.65;88.26;95053.72;5032492;28;20209;-85
2021/10/05 05:28:21;;;;;;;11.77;10.57;;;;;;;14.60;88.59;95048.41;5036001;28;20221;-85
2021/10/05 05:30:47;;;;;;;12.43;11.23;;;;;;;14.65;88.65;95048.53;5036634;28;20201;-85
2021/10/05 05:33:14;;;;;;;11.93;10.70;;;;;;;14.66;89.51;95049.34;5036535;28;20820;-85
2021/10/05 05:35:40;;;;;;;11.40;10.30;;;;;;;14.67;88.46;95048.34;5036045;28;20209;-84
2021/10/05 05:38:08;;;;;;;12.03;10.83;;;;;;;14.64;89.81;95041.00;5035627;28;20229;-86
2021/10/05 05:40:37;;;;;;;11.50;10.40;;;;;;;14.59;89.34;95036.47;5036623;28;20225;-85
2021/10/05 05:43:04;;;;;;;10.93;9.77;;;;;;;14.47;90.53;95036.38;5036218;28;20202;-85
2021/10/05 05:45:33;;;;;;;10.87;9.77;;;;;;;14.55;89.24;95050.84;5036166;28;20222;-85
2021/10/05 05:47:59;;;;;;;11.83;9.37;;;;;;;14.56;89.93;95044.66;5036395;28;20556;-85
2021/10/05 05:50:26;;;;;;;11.93;10.67;;;;;;;14.56;88.31;95049.84;5036338;28;20209;-85
2021/10/05 05:52:53;;;;;;;10.43;9.43;;;;;;;14.46;88.64;95054.72;5035416;28;20198;-85
2021/10/05 05:55:21;;;;;;;10.53;9.53;;;;;;;14.50;88.85;95046.31;5035665;28;20214;-85
2021/10/05 05:57:51;;;;;;;11.10;9.90;;;;;;;14.57;88.34;95056.63;5035940;28;20309;-84
2021/10/05 06:00:21;;;;;;;12.00;9.80;;;;;;;14.60;88.08;95048.41;5036606;28;20213;-84
2021/10/05 06:02:48;;;;;;;10.10;8.97;;;;;;;14.63;87.89;95047.97;5035889;28;20264;-83
2021/10/05 06:05:14;;;;;;;10.00;8.97;;;;;;;14.65;88.22;95058.13;5035776;28;20206;-85
2021/10/05 06:07:46;;;;;;;10.33;9.20;;;;;;;14.65;88.08;95058.91;5036191;28;20264;-85
2021/10/05 06:10:13;;;;;;;10.17;8.77;;;;;;;14.63;88.08;95063.50;5035758;28;20198;-85
2021/10/05 06:12:41;;;;;;;11.40;9.57;;;;;;;14.68;88.08;95063.66;5035186;28;20198;-85
2021/10/05 06:15:10;;;;;;;11.57;9.40;;;;;;;14.62;87.79;95049.00;5035561;28;20285;-85
2021/10/05 06:17:39;;;;;;;10.03;8.83;;;;;;;14.58;88.01;95053.03;5020630;28;20222;-84
2021/10/05 06:20:08;;;;;;;9.93;8.93;;;;;;;14.57;87.85;95055.81;5035249;28;20237;-85
2021/10/05 06:22:35;;;;;;;10.60;9.50;;;;;;;14.46;88.68;95039.97;5034683;28;20263;-85
2021/10/05 06:25:02;;;;;;;10.27;8.83;;;;;;;14.41;89.07;95047.59;5035329;28;20691;-85
2021/10/05 06:27:28;;;;;;;10.27;9.20;;;;;;;14.36;89.87;95049.19;5035352;28;20251;-85
2021/10/05 06:29:58;;;;;;;10.50;9.40;;;;;;;14.29;90.47;95038.09;5035737;28;20202;-84
2021/10/05 06:32:24;;;;;;;10.90;8.93;;;;;;;14.39;90.98;95046.19;5035846;28;20199;-85
2021/10/05 06:34:53;;;;;;;10.83;9.03;;;;;;;14.39;90.13;95052.16;5034830;28;20228;-85
2021/10/05 06:37:20;;;;;;;8.73;7.83;;;;;;;14.37;90.24;95053.38;5034847;28;20209;-84
2021/10/05 06:39:49;;;;;;;11.83;8.73;;;;;;;14.46;90.28;95067.66;5019134;28;20206;-85
2021/10/05 06:42:16;;;;;;;9.23;8.23;;;;;;;14.53;89.80;95073.59;5023713;28;20190;-84
2021/10/05 06:44:45;;;;;;;8.60;7.67;;;;;;;14.59;89.68;95071.94;5034888;28;20205;-85
2021/10/05 06:47:14;;;;;;;10.57;7.67;;;;;;;14.57;88.68;95077.34;5035344;28;20296;-85
2021/10/05 06:49:41;;;;;;;8.67;7.87;;;;;;;14.54;88.86;95080.34;5034638;28;20713;-83
2021/10/05 06:52:08;;;;;;;8.43;7.23;;;;;;;14.56;88.30;95082.72;5034674;28;20205;-84
2021/10/05 06:54:35;;;;;;;9.40;7.37;;;;;;;14.63;88.11;95080.84;5034813;28;20210;-85
2021/10/05 06:57:02;;;;;;;7.33;6.63;;;;;;;14.67;87.94;95071.66;5034566;28;20206;-85
2021/10/05 06:59:28;;;;;;;7.20;6.50;;;;;;;14.77;87.29;95067.59;5034538;28;20225;-84
2021/10/05 07:01:55;;;;;;;7.57;6.77;;;;;;;14.72;87.13;95070.00;5034630;28;20198;-85
2021/10/05 07:04:23;;;;;;;7.87;6.77;;;;;;;14.72;86.45;95072.59;5027242;28;20214;-85
2021/10/05 07:06:49;;;;;;;8.63;6.43;;;;;;;14.64;86.99;95074.66;5019459;28;20218;-85
2021/10/05 07:09:15;;;;;;;7.03;6.33;;;;;;;14.57;86.39;95082.53;5026957;28;20236;-85
2021/10/05 07:11:45;;;;;;;6.40;5.80;;;;;;;14.64;86.84;95087.63;5031979;28;20198;-84
2021/10/05 07:14:15;;;;;;;7.10;6.40;;;;;;;14.72;86.18;95085.56;5028274;28;20212;-85
2021/10/05 07:16:42;;;;;;;6.73;6.10;;;;;;;14.74;86.94;95093.91;5033589;28;20212;-85
2021/10/05 07:19:08;;;;;;;8.57;6.47;;;;;;;14.78;87.70;95094.28;5021818;28;20230;-84
2021/10/05 07:21:36;;;;;;;6.87;6.17;;;;;;;14.75;88.42;95099.91;5017786;28;20214;-85
2021/10/05 07:24:03;;;;;;;6.93;6.17;;;;;;;14.84;87.43;95094.22;5032317;28;20685;-85
2021/10/05 07:26:29;;;;;;;6.90;6.10;;;;;;;14.86;86.01;95099.97;5021577;28;20666;-85
2021/10/05 07:28:56;;;;;;;6.37;5.60;;;;;;;14.92;85.97;95089.75;5019041;28;20213;-85
2021/10/05 07:31:23;;;;;;;7.73;5.50;;;;;;;14.90;85.56;95100.34;5030917;28;20198;-85
2021/10/05 07:33:49;;;;;;;6.80;5.30;;;;;;;14.92;86.23;95106.09;5015368;28;20210;-85
2021/10/05 07:36:17;;;;;;;5.90;5.30;;;;;;;14.95;86.05;95104.88;5028333;28;20206;-85
2021/10/05 07:38:47;;;;;;;6.37;5.20;;;;;;;14.93;86.77;95105.09;5034219;28;20249;-85
2021/10/05 07:41:13;;;;;;;5.83;5.23;;;;;;;14.82;86.40;95095.41;5033496;28;20205;-85
2021/10/05 07:43:40;;;;;;;6.60;5.33;;;;;;;14.83;87.17;95097.81;5013839;28;20313;-83
2021/10/05 07:46:06;;;;;;;5.63;5.10;;;;;;;14.83;86.81;95100.41;5014092;28;20202;-83
2021/10/05 07:48:33;;;;;;;6.40;5.17;;;;;;;14.88;87.03;95099.75;5013959;28;20214;-84
2021/10/05 07:50:59;;;;;;;6.97;5.60;;;;;;;14.85;87.83;95105.38;5012965;28;20597;-85
2021/10/05 07:53:29;;;;;;;5.43;4.90;;;;;;;14.83;86.25;95087.44;5013397;28;20213;-85
2021/10/05 07:55:57;;;;;;;4.77;4.37;;;;;;;14.87;86.35;95082.63;5014051;28;20206;-84
2021/10/05 07:58:23;;;;;;;5.10;4.60;;;;;;;14.81;86.37;95070.53;5024796;28;20224;-85
2021/10/05 08:00:50;;;;;;;5.33;4.80;;;;;;;14.92;86.42;95066.44;5026533;28;20201;-84
2021/10/05 08:03:17;;;;;;;5.07;4.57;;;;;;;14.98;85.76;95062.97;5033308;28;20228;-85
2021/10/05 08:05:44;;;;;;;4.93;4.53;;;;;;;15.03;85.96;95061.31;5033176;28;20198;-85
2021/10/05 08:08:11;;;;;;;4.90;4.50;;;;;;;15.06;86.26;95070.47;5033415;28;20218;-85
2021/10/05 08:10:41;;;;;;;5.07;4.57;;;;;;;15.00;86.82;95069.53;5033736;28;20257;-84
2021/10/05 08:13:10;;;;;;;4.90;4.47;;;;;;;14.90;86.25;95060.66;5032854;28;20206;-83
2021/10/05 08:15:41;;;;;;;4.70;4.30;;;;;;;14.98;86.26;95070.75;5032115;28;20213;-85
2021/10/05 08:18:08;;;;;;;5.03;4.53;;;;;;;15.09;86.00;95078.59;5032599;28;20218;-85
2021/10/05 08:20:35;;;;;;;4.90;4.43;;;;;;;15.04;85.63;95080.25;5033054;28;20202;-85
2021/10/05 08:23:01;;;;;;;4.50;4.10;;;;;;;14.97;86.03;95090.72;5027351;28;20206;-85
2021/10/05 08:25:28;;;;;;;3.95;3.65;;;;;;;14.97;86.29;95098.47;5010961;28;20210;-85
2021/10/05 08:27:57;;;;;;;4.67;4.17;;;;;;;15.10;86.13;95093.16;5019605;28;20226;-85
2021/10/05 08:30:25;;;;;;;4.40;4.00;;;;;;;15.18;86.12;95089.47;5032402;28;20209;-86
2021/10/05 08:32:55;;;;;;;4.10;3.70;;;;;;;15.16;85.71;95099.28;5032097;28;20205;-85
2021/10/05 08:35:22;;;;;;;4.15;3.75;;;;;;;15.22;85.39;95098.41;5032374;28;20202;-85
2021/10/05 08:37:51;;;;;;;3.85;3.55;;;;;;;15.32;84.88;95105.69;5032654;28;20217;-84
2021/10/05 08:40:22;;;;;;;4.37;3.97;;;;;;;15.39;84.73;95106.41;5032461;28;20201;-84
2021/10/05 08:42:49;;;;;;;3.93;3.63;;;;;;;15.40;83.44;95105.38;5020563;28;20273;-85
2021/10/05 08:45:19;;;;;;;4.17;3.77;;;;;;;15.42;83.65;95106.75;5012676;28;20231;-85
2021/10/05 08:47:47;;;;;;;4.30;3.90;;;;;;;15.46;83.60;95107.91;5013453;28;20230;-85
2021/10/05 08:50:16;;;;;;;3.97;3.60;;;;;;;15.46;83.86;95101.91;5013617;28;20289;-85
2021/10/05 08:52:44;;;;;;;4.90;3.88;;;;;;;15.41;83.88;95102.56;5019167;28;20244;-84
2021/10/05 08:55:13;;;;;;;4.47;4.05;;;;;;;15.42;84.18;95092.97;5032379;28;20190;-85
2021/10/05 08:57:42;;;;;;;4.57;4.17;;;;;;;15.39;84.38;95075.28;5032494;28;20749;-86
2021/10/05 09:00:10;;;;;;;5.23;4.53;;;;;;;15.34;85.82;95088.09;5031645;28;20230;-85
2021/10/05 09:02:46;;;;;;;4.25;3.85;;;;;;;15.31;85.31;95089.31;5035360;28;20851;-85
2021/10/05 09:05:16;;;;;;;5.10;4.40;;;;;;;15.41;85.22;95086.19;5036459;28;20216;-85
2021/10/05 09:07:44;;;;;;;5.20;4.70;;;;;;;15.48;86.57;95079.94;5034944;28;20234;-83
2021/10/05 09:10:14;;;;;;;5.23;4.83;;;;;;;15.58;85.25;95068.28;5036691;28;20201;-85
2021/10/05 09:12:43;;;;;;;5.13;4.63;;;;;;;15.59;85.53;95064.69;5036225;28;20261;-84
2021/10/05 09:15:14;;;;;;;5.28;4.78;;;;;;;15.65;84.79;95064.56;5019771;28;20237;-84
2021/10/05 09:17:41;;;;;;;6.78;4.57;;;;;;;15.67;85.38;95072.94;5030619;28;20229;-84
2021/10/05 09:20:27;;;;;;;5.23;4.77;;;;;;;15.59;85.43;95067.28;5034022;28;20309;-85
2021/10/05 09:23:02;;;;;;;5.07;4.57;;;;;;;15.61;85.33;95073.00;5034528;28;20221;-85
2021/10/05 09:25:31;;;;;;;5.15;4.70;;;;;;;15.58;84.84;95076.06;5035940;28;20614;-83
2021/10/05 09:28:01;;;;;;;4.90;4.50;;;;;;;15.65;84.52;95085.34;5034157;28;20222;-84
2021/10/05 09:30:28;;;;;;;5.30;4.13;;;;;;;15.64;84.15;95081.16;5035968;28;20210;-85
2021/10/05 09:33:00;;;;;;;4.80;4.30;;;;;;;15.73;84.37;95072.06;5035857;28;20252;-85
2021/10/05 09:35:40;;;;;;;4.95;4.45;;;;;;;15.96;84.48;95079.13;5035652;28;20213;-85
2021/10/05 09:38:11;;;;;;;5.90;4.38;;;;;;;16.03;84.65;95081.59;5036626;28;20217;-85
2021/10/05 09:40:38;;;;;;;5.63;4.20;;;;;;;15.95;83.13;95074.16;5030257;28;20293;-85
2021/10/05 09:43:18;;;;;;;5.30;4.30;;;;;;;15.83;82.37;95085.28;5015659;28;20203;-85
2021/10/05 09:45:44;;;;;;;5.05;4.57;;;;;;;15.79;83.01;95085.94;5014963;28;20227;-85
2021/10/05 09:48:12;;;;;;;4.60;4.20;;;;;;;15.74;82.60;95068.44;5015714;28;20219;-86
2021/10/05 09:50:41;;;;;;;5.67;3.87;;;;;;;15.71;82.95;95076.66;5015684;28;20256;-84
2021/10/05 09:53:10;;;;;;;4.10;3.80;;;;;;;15.61;81.49;95089.38;5025012;28;20228;-83
2021/10/05 09:55:38;;;;;;;4.20;3.90;;;;;;;15.62;82.24;95098.75;5035692;28;20206;-83
2021/10/05 09:58:05;;;;;;;4.50;4.10;;;;;;;15.46;81.04;95092.31;5035847;28;20225;-85
2021/10/05 10:00:36;;;;;;;4.30;3.90;;;;;;;15.50;81.55;95090.09;5035319;28;20226;-83
2021/10/05 10:03:04;;;;;;;4.57;4.18;;;;;;;15.54;82.66;95094.63;5035655;28;20206;-83
2021/10/05 10:05:31;;;;;;;4.40;4.00;;;;;;;15.62;81.65;95096.16;5032484;28;20202;-83
2021/10/05 10:07:59;;;;;;;4.88;4.47;;;;;;;15.60;81.72;95092.97;5029866;28;20265;-85
2021/10/05 10:10:30;;;;;;;5.40;4.22;;;;;;;15.59;81.67;95078.41;5036672;28;20229;-82
2021/10/05 10:12:59;;;;;;;5.00;4.50;;;;;;;15.69;80.80;95080.50;5032902;28;20202;-83
2021/10/05 10:15:28;;;;;;;5.38;4.70;;;;;;;15.81;80.28;95081.31;5034457;28;20284;-85
2021/10/05 10:18:04;;;;;;;5.22;4.82;;;;;;;15.94;79.94;95072.56;5026393;28;20229;-85
2021/10/05 10:20:31;;;;;;;5.22;4.82;;;;;;;16.03;80.13;95066.81;5034921;28;20229;-85
2021/10/05 10:22:59;;;;;;;4.80;4.40;;;;;;;16.07;80.86;95062.78;5035969;28;20198;-85
2021/10/05 10:25:28;;;;;;;4.57;4.18;;;;;;;15.99;81.18;95059.69;5032359;28;20210;-84
2021/10/05 10:27:57;;;;;;;4.72;4.32;;;;;;;15.93;81.23;95066.59;5028132;28;20223;-85
2021/10/05 10:30:25;;;;;;;5.28;4.50;;;;;;;15.96;80.90;95060.94;5015184;28;20233;-86
2021/10/05 10:32:55;;;;;;;5.05;4.57;;;;;;;15.97;81.29;95065.09;5013330;28;20199;-84
2021/10/05 10:35:21;;;;;;;4.60;4.20;;;;;;;15.99;81.13;95060.47;5022996;28;20202;-85
2021/10/05 10:37:49;;;;;;;4.80;4.28;;;;;;;15.97;81.50;95061.75;5032653;28;20309;-85
2021/10/05 10:40:19;;;;;;;4.10;3.80;;;;;;;15.96;80.44;95066.16;5029794;28;20237;-84
2021/10/05 10:42:46;;;;;;;4.22;3.88;;;;;;;15.90;80.11;95067.03;5021091;28;20205;-85
2021/10/05 10:45:22;;;;;;;3.90;3.60;;;;;;;15.93;79.64;95068.38;5022448;28;20206;-82
2021/10/05 10:47:52;;;;;;;4.63;4.18;;;;;;;15.94;79.70;95067.38;5034274;28;20229;-84
2021/10/05 10:50:19;;;;;;;4.65;4.20;;;;;;;15.92;79.07;95074.59;5031724;28;20244;-86
2021/10/05 10:52:48;;;;;;;3.90;3.60;;;;;;;16.01;78.58;95078.44;5018530;28;20701;-83
2021/10/05 10:55:18;;;;;;;4.50;4.10;;;;;;;16.01;78.78;95086.22;5032100;28;20284;-84
2021/10/05 10:57:54;;;;;;;3.88;3.58;;;;;;;16.03;78.01;95079.81;5032962;28;20229;-83
2021/10/05 11:00:23;;;;;;;3.80;3.50;;;;;;;16.00;77.06;95092.44;5033088;28;20692;-82
2021/10/05 11:02:51;;;;;;;3.88;3.58;;;;;;;16.05;77.02;95103.75;5032882;28;20206;-83
2021/10/05 11:05:21;;;;;;;5.07;3.80;;;;;;;16.02;77.67;95100.78;5032218;28;20260;-84
2021/10/05 11:07:50;;;;;;;4.13;3.72;;;;;;;16.06;78.24;95100.13;5032391;28;20229;-85
2021/10/05 11:10:24;;;;;;;4.22;3.83;;;;;;;16.06;77.78;95101.94;5032890;28;20203;-83
2021/10/05 11:12:52;;;;;;;4.30;3.90;;;;;;;16.06;76.80;95100.13;5025340;28;20201;-85
2021/10/05 11:15:31;;;;;;;4.30;3.60;;;;;;;16.11;77.90;95108.06;5021331;28;20712;-86
2021/10/05 11:18:03;;;;;;;4.30;3.58;;;;;;;16.16;77.21;95110.75;5012614;28;20732;-84
2021/10/05 11:20:29;;;;;;;4.45;3.75;;;;;;;16.20;77.89;95114.50;5012301;28;20231;-84
2021/10/05 11:23:00;;;;;;;4.05;3.20;;;;;;;16.22;77.75;95111.69;5012339;28;20202;-86
2021/10/05 11:25:27;;;;;;;3.45;3.15;;;;;;;16.25;78.52;95103.47;5012624;28;20198;-85
2021/10/05 11:27:54;;;;;;;3.92;3.38;;;;;;;16.28;78.30;95104.81;5019582;28;20233;-85
2021/10/05 11:30:20;;;;;;;4.20;3.80;;;;;;;16.26;77.51;95102.44;5031502;28;20661;-85
2021/10/05 11:32:49;;;;;;;3.63;3.33;;;;;;;16.19;78.63;95110.31;5033357;28;20202;-85
2021/10/05 11:35:15;;;;;;;4.00;3.60;;;;;;;16.14;77.43;95107.63;5033184;28;20206;-85